sensor_id;sensor_type;location;lat;lon;timestamp;pressure;altitude;pressure_sealevel;temperature;humidity
68193;BME280;55012;47.562;18.414;2022-12-10T00:01:45;98133.25;;;5.02;100.00
68193;BME280;55012;47.562;18.414;2022-12-10T00:04:11;98128.47;;;5.08;100.00
68193;BME280;55012;47.562;18.414;2022-12-10T00:06:38;98139.19;;;5.08;100.00
68193;BME280;55012;47.562;18.414;2022-12-10T00:09:07;98152.00;;;5.02;100.00
68193;BME280;55012;47.562;18.414;2022-12-10T00:11:33;98151.47;;;4.97;100.00
68193;BME280;55012;47.562;18.414;2022-12-10T00:13:59;98150.66;;;4.84;100.00
68193;BME280;55012;47.562;18.414;2022-12-10T00:16:26;98157.47;;;4.82;100.00
68193;BME280;55012;47.562;18.414;2022-12-10T00:18:52;98165.84;;;4.80;100.00
68193;BME280;55012;47.562;18.414;2022-12-10T00:21:23;98162.59;;;4.87;100.00
68193;BME280;55012;47.562;18.414;2022-12-10T00:23:49;98151.34;;;4.93;100.00
68193;BME280;55012;47.562;18.414;2022-12-10T00:26:20;98159.94;;;4.99;100.00
68193;BME280;55012;47.562;18.414;2022-12-10T00:28:46;98149.09;;;4.95;100.00
68193;BME280;55012;47.562;18.414;2022-12-10T00:31:15;98166.31;;;4.94;100.00
68193;BME280;55012;47.562;18.414;2022-12-10T00:33:41;98165.63;;;4.85;100.00
68193;BME280;55012;47.562;18.414;2022-12-10T00:36:10;98175.03;;;4.91;100.00
68193;BME280;55012;47.562;18.414;2022-12-10T00:38:37;98166.97;;;4.91;100.00
68193;BME280;55012;47.562;18.414;2022-12-10T00:41:03;98157.16;;;4.83;100.00
68193;BME280;55012;47.562;18.414;2022-12-10T00:43:29;98163.28;;;4.84;100.00
68193;BME280;55012;47.562;18.414;2022-12-10T00:45:54;98167.97;;;4.87;100.00
68193;BME280;55012;47.562;18.414;2022-12-10T00:48:21;98170.34;;;4.88;100.00
68193;BME280;55012;47.562;18.414;2022-12-10T00:50:56;98162.28;;;4.88;100.00
68193;BME280;55012;47.562;18.414;2022-12-10T00:53:23;98153.13;;;4.89;100.00
68193;BME280;55012;47.562;18.414;2022-12-10T00:55:49;98149.69;;;4.89;100.00
68193;BME280;55012;47.562;18.414;2022-12-10T00:58:14;98172.09;;;4.84;100.00
68193;BME280;55012;47.562;18.414;2022-12-10T01:00:40;98169.31;;;4.81;100.00
68193;BME280;55012;47.562;18.414;2022-12-10T01:03:05;98180.44;;;4.70;100.00
68193;BME280;55012;47.562;18.414;2022-12-10T01:05:30;98167.28;;;4.65;100.00
68193;BME280;55012;47.562;18.414;2022-12-10T01:07:56;98172.63;;;4.65;100.00
68193;BME280;55012;47.562;18.414;2022-12-10T01:10:22;98195.03;;;4.61;100.00
68193;BME280;55012;47.562;18.414;2022-12-10T01:12:47;98169.72;;;4.58;100.00
68193;BME280;55012;47.562;18.414;2022-12-10T01:15:13;98141.78;;;4.47;100.00
68193;BME280;55012;47.562;18.414;2022-12-10T01:17:38;98166.81;;;4.30;100.00
68193;BME280;55012;47.562;18.414;2022-12-10T01:20:04;98191.56;;;4.27;100.00
68193;BME280;55012;47.562;18.414;2022-12-10T01:22:29;98196.22;;;4.18;100.00
68193;BME280;55012;47.562;18.414;2022-12-10T01:24:55;98198.97;;;4.09;100.00
68193;BME280;55012;47.562;18.414;2022-12-10T01:27:20;98196.97;;;4.06;100.00
68193;BME280;55012;47.562;18.414;2022-12-10T01:29:46;98216.78;;;4.05;100.00
68193;BME280;55012;47.562;18.414;2022-12-10T01:32:12;98225.25;;;3.86;100.00
68193;BME280;55012;47.562;18.414;2022-12-10T01:34:37;98233.72;;;3.67;100.00
68193;BME280;55012;47.562;18.414;2022-12-10T01:37:03;98221.31;;;3.63;100.00
68193;BME280;55012;47.562;18.414;2022-12-10T01:39:28;98233.91;;;3.62;100.00
68193;BME280;55012;47.562;18.414;2022-12-10T01:41:56;98230.47;;;3.53;100.00
68193;BME280;55012;47.562;18.414;2022-12-10T01:46:51;98235.47;;;3.34;100.00
68193;BME280;55012;47.562;18.414;2022-12-10T01:49:20;98220.66;;;3.36;100.00
68193;BME280;55012;47.562;18.414;2022-12-10T01:51:49;98220.81;;;3.40;100.00
68193;BME280;55012;47.562;18.414;2022-12-10T01:54:23;98218.94;;;3.41;100.00
68193;BME280;55012;47.562;18.414;2022-12-10T01:59:25;98228.41;;;3.29;100.00
68193;BME280;55012;47.562;18.414;2022-12-10T02:05:04;98211.91;;;3.27;100.00
68193;BME280;55012;47.562;18.414;2022-12-10T02:12:49;98223.25;;;3.24;100.00
68193;BME280;55012;47.562;18.414;2022-12-10T02:15:20;98229.38;;;3.25;100.00
68193;BME280;55012;47.562;18.414;2022-12-10T02:18:19;98236.28;;;3.26;100.00
68193;BME280;55012;47.562;18.414;2022-12-10T02:20:50;98235.50;;;3.25;100.00
68193;BME280;55012;47.562;18.414;2022-12-10T02:23:38;98242.41;;;3.26;100.00
68193;BME280;55012;47.562;18.414;2022-12-10T02:26:34;98236.28;;;3.26;100.00
68193;BME280;55012;47.562;18.414;2022-12-10T02:29:16;98243.19;;;3.27;100.00
68193;BME280;55012;47.562;18.414;2022-12-10T02:31:46;98225.44;;;3.22;100.00
68193;BME280;55012;47.562;18.414;2022-12-10T02:34:14;98235.81;;;3.24;100.00
68193;BME280;55012;47.562;18.414;2022-12-10T02:36:43;98235.03;;;3.23;100.00
68193;BME280;55012;47.562;18.414;2022-12-10T02:39:12;98228.91;;;3.23;100.00
68193;BME280;55012;47.562;18.414;2022-12-10T02:41:42;98224.97;;;3.20;100.00
68193;BME280;55012;47.562;18.414;2022-12-10T02:44:12;98216.34;;;3.23;100.00
68193;BME280;55012;47.562;18.414;2022-12-10T02:46:41;98216.63;;;3.22;100.00
68193;BME280;55012;47.562;18.414;2022-12-10T02:49:08;98224.66;;;3.22;100.00
68193;BME280;55012;47.562;18.414;2022-12-10T02:51:36;98232.38;;;3.23;100.00
68193;BME280;55012;47.562;18.414;2022-12-10T02:54:05;98228.44;;;3.21;100.00
68193;BME280;55012;47.562;18.414;2022-12-10T02:56:38;98226.53;;;3.21;100.00
68193;BME280;55012;47.562;18.414;2022-12-10T02:59:17;98247.13;;;3.21;100.00
68193;BME280;55012;47.562;18.414;2022-12-10T03:04:27;98262.38;;;3.20;100.00
68193;BME280;55012;47.562;18.414;2022-12-10T03:06:59;98234.88;;;3.20;100.00
68193;BME280;55012;47.562;18.414;2022-12-10T03:09:30;98245.41;;;3.25;100.00
68193;BME280;55012;47.562;18.414;2022-12-10T03:12:14;98275.44;;;3.22;100.00
68193;BME280;55012;47.562;18.414;2022-12-10T03:14:41;98249.50;;;3.14;100.00
68193;BME280;55012;47.562;18.414;2022-12-10T03:17:08;98268.84;;;3.19;100.00
68193;BME280;55012;47.562;18.414;2022-12-10T03:19:41;98265.09;;;3.12;100.00
68193;BME280;55012;47.562;18.414;2022-12-10T03:22:08;98259.75;;;3.12;100.00
68193;BME280;55012;47.562;18.414;2022-12-10T03:24:35;98252.50;;;3.12;100.00
68193;BME280;55012;47.562;18.414;2022-12-10T03:27:03;98237.91;;;3.09;100.00
68193;BME280;55012;47.562;18.414;2022-12-10T03:29:33;98235.06;;;3.06;100.00
68193;BME280;55012;47.562;18.414;2022-12-10T03:32:02;98230.38;;;3.03;100.00
68193;BME280;55012;47.562;18.414;2022-12-10T03:34:28;98229.28;;;3.04;100.00
68193;BME280;55012;47.562;18.414;2022-12-10T03:36:53;98250.31;;;3.05;100.00
68193;BME280;55012;47.562;18.414;2022-12-10T03:39:19;98258.66;;;3.04;100.00
68193;BME280;55012;47.562;18.414;2022-12-10T03:41:45;98242.03;;;2.98;100.00
68193;BME280;55012;47.562;18.414;2022-12-10T03:44:11;98262.16;;;2.96;100.00
68193;BME280;55012;47.562;18.414;2022-12-10T03:46:37;98250.69;;;2.95;100.00
68193;BME280;55012;47.562;18.414;2022-12-10T03:49:03;98269.06;;;2.97;100.00
68193;BME280;55012;47.562;18.414;2022-12-10T03:51:29;98256.81;;;2.96;100.00
68193;BME280;55012;47.562;18.414;2022-12-10T03:53:54;98324.03;;;2.98;100.00
68193;BME280;55012;47.562;18.414;2022-12-10T03:56:20;98347.97;;;2.86;100.00
68193;BME280;55012;47.562;18.414;2022-12-10T03:58:46;98333.81;;;2.76;100.00
68193;BME280;55012;47.562;18.414;2022-12-10T04:01:13;98357.53;;;2.69;100.00
68193;BME280;55012;47.562;18.414;2022-12-10T04:03:40;98346.22;;;2.64;100.00
68193;BME280;55012;47.562;18.414;2022-12-10T04:06:08;98342.16;;;2.66;100.00
68193;BME280;55012;47.562;18.414;2022-12-10T04:08:34;98347.50;;;2.58;100.00
68193;BME280;55012;47.562;18.414;2022-12-10T04:11:04;98346.53;;;2.53;100.00
68193;BME280;55012;47.562;18.414;2022-12-10T04:13:34;98357.69;;;2.56;100.00
68193;BME280;55012;47.562;18.414;2022-12-10T04:16:18;98353.94;;;2.57;100.00
68193;BME280;55012;47.562;18.414;2022-12-10T04:18:54;98345.63;;;2.58;100.00
68193;BME280;55012;47.562;18.414;2022-12-10T04:21:20;98338.84;;;2.61;100.00
68193;BME280;55012;47.562;18.414;2022-12-10T04:24:04;98344.50;;;2.59;100.00
68193;BME280;55012;47.562;18.414;2022-12-10T04:26:48;98346.88;;;2.52;100.00
68193;BME280;55012;47.562;18.414;2022-12-10T04:29:17;98350.63;;;2.51;100.00
68193;BME280;55012;47.562;18.414;2022-12-10T04:31:43;98354.09;;;2.43;100.00
68193;BME280;55012;47.562;18.414;2022-12-10T04:34:08;98352.50;;;2.42;100.00
68193;BME280;55012;47.562;18.414;2022-12-10T04:36:34;98353.44;;;2.37;100.00
68193;BME280;55012;47.562;18.414;2022-12-10T04:38:59;98368.03;;;2.31;100.00
68193;BME280;55012;47.562;18.414;2022-12-10T04:41:25;98352.63;;;2.28;100.00
68193;BME280;55012;47.562;18.414;2022-12-10T04:43:52;98365.84;;;2.24;100.00
68193;BME280;55012;47.562;18.414;2022-12-10T04:46:17;98360.97;;;2.27;100.00
68193;BME280;55012;47.562;18.414;2022-12-10T04:48:43;98373.84;;;2.33;100.00
68193;BME280;55012;47.562;18.414;2022-12-10T04:51:08;98369.75;;;2.27;100.00
68193;BME280;55012;47.562;18.414;2022-12-10T04:53:34;98374.94;;;2.23;100.00
68193;BME280;55012;47.562;18.414;2022-12-10T04:55:59;98361.28;;;2.25;100.00
68193;BME280;55012;47.562;18.414;2022-12-10T04:58:26;98366.63;;;2.25;100.00
68193;BME280;55012;47.562;18.414;2022-12-10T05:01:04;98384.00;;;2.22;100.00
68193;BME280;55012;47.562;18.414;2022-12-10T05:03:30;98365.03;;;2.15;100.00
68193;BME280;55012;47.562;18.414;2022-12-10T05:05:55;98375.22;;;2.22;100.00
68193;BME280;55012;47.562;18.414;2022-12-10T05:08:25;98374.31;;;2.27;100.00
68193;BME280;55012;47.562;18.414;2022-12-10T05:10:50;98376.34;;;2.30;100.00
68193;BME280;55012;47.562;18.414;2022-12-10T05:13:16;98383.75;;;2.33;100.00
68193;BME280;55012;47.562;18.414;2022-12-10T05:15:41;98405.34;;;2.22;100.00
68193;BME280;55012;47.562;18.414;2022-12-10T05:18:06;98408.78;;;2.14;100.00
68193;BME280;55012;47.562;18.414;2022-12-10T05:20:32;98384.31;;;2.12;100.00
68193;BME280;55012;47.562;18.414;2022-12-10T05:22:57;98382.44;;;2.13;100.00
68193;BME280;55012;47.562;18.414;2022-12-10T05:25:41;98389.50;;;2.09;100.00
68193;BME280;55012;47.562;18.414;2022-12-10T05:28:24;98385.41;;;2.11;100.00
68193;BME280;55012;47.562;18.414;2022-12-10T05:30:50;98408.31;;;2.12;100.00
68193;BME280;55012;47.562;18.414;2022-12-10T05:33:15;98399.41;;;2.17;100.00
68193;BME280;55012;47.562;18.414;2022-12-10T05:35:41;98392.94;;;2.09;100.00
68193;BME280;55012;47.562;18.414;2022-12-10T05:38:06;98403.59;;;2.01;100.00
68193;BME280;55012;47.562;18.414;2022-12-10T05:40:38;98415.78;;;1.93;100.00
68193;BME280;55012;47.562;18.414;2022-12-10T05:43:04;98421.91;;;1.93;100.00
68193;BME280;55012;47.562;18.414;2022-12-10T05:45:32;98408.72;;;1.97;100.00
68193;BME280;55012;47.562;18.414;2022-12-10T05:47:58;98400.56;;;1.93;100.00
68193;BME280;55012;47.562;18.414;2022-12-10T05:50:23;98428.03;;;1.94;100.00
68193;BME280;55012;47.562;18.414;2022-12-10T05:52:50;98415.31;;;1.91;100.00
68193;BME280;55012;47.562;18.414;2022-12-10T05:55:16;98415.31;;;1.91;100.00
68193;BME280;55012;47.562;18.414;2022-12-10T05:57:41;98419.06;;;1.90;100.00
68193;BME280;55012;47.562;18.414;2022-12-10T06:00:07;98417.34;;;1.94;100.00
68193;BME280;55012;47.562;18.414;2022-12-10T06:02:33;98424.25;;;1.95;100.00
68193;BME280;55012;47.562;18.414;2022-12-10T06:04:58;98412.34;;;1.92;100.00
68193;BME280;55012;47.562;18.414;2022-12-10T06:07:24;98422.69;;;1.94;100.00
68193;BME280;55012;47.562;18.414;2022-12-10T06:09:50;98427.56;;;1.92;100.00
68193;BME280;55012;47.562;18.414;2022-12-10T06:12:15;98418.47;;;1.93;100.00
68193;BME280;55012;47.562;18.414;2022-12-10T06:14:41;98432.44;;;1.98;100.00
68193;BME280;55012;47.562;18.414;2022-12-10T06:17:06;98422.69;;;1.94;100.00
68193;BME280;55012;47.562;18.414;2022-12-10T06:19:32;98445.59;;;1.95;100.00
68193;BME280;55012;47.562;18.414;2022-12-10T06:21:57;98443.53;;;1.83;100.00
68193;BME280;55012;47.562;18.414;2022-12-10T06:24:24;98444.91;;;1.81;100.00
68193;BME280;55012;47.562;18.414;2022-12-10T06:26:49;98432.66;;;1.80;100.00
68193;BME280;55012;47.562;18.414;2022-12-10T06:29:15;98439.56;;;1.81;100.00
68193;BME280;55012;47.562;18.414;2022-12-10T06:31:40;98448.53;;;1.85;100.00
68193;BME280;55012;47.562;18.414;2022-12-10T06:34:06;98423.56;;;1.81;100.00
68193;BME280;55012;47.562;18.414;2022-12-10T06:36:31;98404.47;;;1.87;100.00
68193;BME280;55012;47.562;18.414;2022-12-10T06:38:56;98412.03;;;1.94;100.00
68193;BME280;55012;47.562;18.414;2022-12-10T06:41:22;98398.53;;;1.90;100.00
68193;BME280;55012;47.562;18.414;2022-12-10T06:43:48;98396.78;;;1.86;100.00
68193;BME280;55012;47.562;18.414;2022-12-10T06:46:16;98388.00;;;1.85;100.00
68193;BME280;55012;47.562;18.414;2022-12-10T06:48:42;98391.09;;;1.79;100.00
68193;BME280;55012;47.562;18.414;2022-12-10T06:51:09;98386.19;;;1.72;100.00
68193;BME280;55012;47.562;18.414;2022-12-10T06:53:36;98383.03;;;1.61;100.00
68193;BME280;55012;47.562;18.414;2022-12-10T06:56:03;98367.00;;;1.53;100.00
68193;BME280;55012;47.562;18.414;2022-12-10T06:58:30;98367.88;;;1.48;100.00
68193;BME280;55012;47.562;18.414;2022-12-10T07:01:04;98346.84;;;1.38;100.00
68193;BME280;55012;47.562;18.414;2022-12-10T07:03:30;98373.97;;;1.40;100.00
68193;BME280;55012;47.562;18.414;2022-12-10T07:05:57;98354.06;;;1.37;100.00
68193;BME280;55012;47.562;18.414;2022-12-10T07:08:23;98346.19;;;1.32;100.00
68193;BME280;55012;47.562;18.414;2022-12-10T07:10:48;98339.47;;;1.35;100.00
68193;BME280;55012;47.562;18.414;2022-12-10T07:13:14;98322.75;;;1.43;100.00
68193;BME280;55012;47.562;18.414;2022-12-10T07:15:39;98325.38;;;1.34;100.00
68193;BME280;55012;47.562;18.414;2022-12-10T07:18:05;98304.03;;;1.34;100.00
68193;BME280;55012;47.562;18.414;2022-12-10T07:20:30;98303.25;;;1.34;100.00
68193;BME280;55012;47.562;18.414;2022-12-10T07:22:55;98289.00;;;1.38;100.00
68193;BME280;55012;47.562;18.414;2022-12-10T07:25:21;98306.56;;;1.39;100.00
68193;BME280;55012;47.562;18.414;2022-12-10T07:27:46;98294.34;;;1.38;100.00
68193;BME280;55012;47.562;18.414;2022-12-10T07:30:12;98291.84;;;1.42;100.00
68193;BME280;55012;47.562;18.414;2022-12-10T07:32:37;98282.28;;;1.41;100.00
68193;BME280;55012;47.562;18.414;2022-12-10T07:35:03;98290.13;;;1.46;100.00
68193;BME280;55012;47.562;18.414;2022-12-10T07:37:30;98287.97;;;1.57;100.00
68193;BME280;55012;47.562;18.414;2022-12-10T07:39:55;98300.22;;;1.58;100.00
68193;BME280;55012;47.562;18.414;2022-12-10T07:42:21;98303.38;;;1.68;100.00
68193;BME280;55012;47.562;18.414;2022-12-10T07:44:48;98278.78;;;1.72;100.00
68193;BME280;55012;47.562;18.414;2022-12-10T07:47:13;98293.31;;;1.65;100.00
68193;BME280;55012;47.562;18.414;2022-12-10T07:49:39;98289.38;;;1.54;100.00
68193;BME280;55012;47.562;18.414;2022-12-10T07:52:05;98290.94;;;1.55;100.00
68193;BME280;55012;47.562;18.414;2022-12-10T07:54:30;98291.28;;;1.62;100.00
68193;BME280;55012;47.562;18.414;2022-12-10T07:56:55;98262.28;;;1.61;100.00
68193;BME280;55012;47.562;18.414;2022-12-10T07:59:21;98272.47;;;1.59;100.00
68193;BME280;55012;47.562;18.414;2022-12-10T08:01:46;98265.25;;;1.59;100.00
68193;BME280;55012;47.562;18.414;2022-12-10T08:04:13;98254.28;;;1.61;100.00
68193;BME280;55012;47.562;18.414;2022-12-10T08:06:38;98244.44;;;1.70;100.00
68193;BME280;55012;47.562;18.414;2022-12-10T08:09:03;98241.63;;;1.75;100.00
68193;BME280;55012;47.562;18.414;2022-12-10T08:11:29;98245.09;;;1.84;100.00
68193;BME280;55012;47.562;18.414;2022-12-10T08:13:55;98254.47;;;1.82;100.00
68193;BME280;55012;47.562;18.414;2022-12-10T08:16:22;98263.75;;;1.76;100.00
68193;BME280;55012;47.562;18.414;2022-12-10T08:18:50;98258.41;;;1.76;100.00
68193;BME280;55012;47.562;18.414;2022-12-10T08:21:18;98262.31;;;1.78;100.00
68193;BME280;55012;47.562;18.414;2022-12-10T08:23:44;98266.41;;;1.76;100.00
68193;BME280;55012;47.562;18.414;2022-12-10T08:26:14;98246.78;;;1.72;100.00
68193;BME280;55012;47.562;18.414;2022-12-10T08:28:39;98234.88;;;1.78;100.00
68193;BME280;55012;47.562;18.414;2022-12-10T08:31:07;98240.38;;;1.90;100.00
68193;BME280;55012;47.562;18.414;2022-12-10T08:33:34;98233.19;;;1.99;100.00
68193;BME280;55012;47.562;18.414;2022-12-10T08:36:03;98235.09;;;2.07;100.00
68193;BME280;55012;47.562;18.414;2022-12-10T08:38:29;98240.09;;;2.17;100.00
68193;BME280;55012;47.562;18.414;2022-12-10T08:40:54;98251.88;;;2.08;100.00
68193;BME280;55012;47.562;18.414;2022-12-10T08:43:23;98250.25;;;1.98;100.00
68193;BME280;55012;47.562;18.414;2022-12-10T08:45:51;98261.13;;;2.10;100.00
68193;BME280;55012;47.562;18.414;2022-12-10T08:48:16;98268.03;;;2.11;100.00
68193;BME280;55012;47.562;18.414;2022-12-10T08:50:42;98277.59;;;2.04;100.00
68193;BME280;55012;47.562;18.414;2022-12-10T08:53:07;98281.22;;;2.08;100.00
68193;BME280;55012;47.562;18.414;2022-12-10T08:55:33;98285.28;;;2.14;100.00
68193;BME280;55012;47.562;18.414;2022-12-10T08:57:59;98289.50;;;2.15;100.00
68193;BME280;55012;47.562;18.414;2022-12-10T09:00:25;98323.25;;;2.11;100.00
68193;BME280;55012;47.562;18.414;2022-12-10T09:02:51;98300.03;;;2.11;100.00
68193;BME280;55012;47.562;18.414;2022-12-10T09:05:16;98291.25;;;2.11;100.00
68193;BME280;55012;47.562;18.414;2022-12-10T09:07:42;98291.38;;;2.06;100.00
68193;BME280;55012;47.562;18.414;2022-12-10T09:10:10;98300.16;;;1.97;100.00
68193;BME280;55012;47.562;18.414;2022-12-10T09:12:37;98315.84;;;1.90;100.00
68193;BME280;55012;47.562;18.414;2022-12-10T09:15:03;98304.53;;;1.85;100.00
68193;BME280;55012;47.562;18.414;2022-12-10T09:17:29;98312.69;;;1.88;100.00
68193;BME280;55012;47.562;18.414;2022-12-10T09:19:54;98317.25;;;1.88;100.00
68193;BME280;55012;47.562;18.414;2022-12-10T09:22:20;98299.19;;;1.85;100.00
68193;BME280;55012;47.562;18.414;2022-12-10T09:24:46;98284.63;;;1.82;100.00
68193;BME280;55012;47.562;18.414;2022-12-10T09:27:11;98288.88;;;1.92;100.00
68193;BME280;55012;47.562;18.414;2022-12-10T09:29:37;98290.91;;;1.95;100.00
68193;BME280;55012;47.562;18.414;2022-12-10T09:32:02;98287.13;;;1.96;100.00
68193;BME280;55012;47.562;18.414;2022-12-10T09:34:28;98290.78;;;2.00;100.00
68193;BME280;55012;47.562;18.414;2022-12-10T09:36:53;98295.59;;;1.98;100.00
68193;BME280;55012;47.562;18.414;2022-12-10T09:39:19;98296.09;;;2.00;100.00
68193;BME280;55012;47.562;18.414;2022-12-10T09:41:59;98297.38;;;2.11;100.00
68193;BME280;55012;47.562;18.414;2022-12-10T09:44:31;98299.72;;;2.13;100.00
68193;BME280;55012;47.562;18.414;2022-12-10T09:47:03;98307.09;;;2.07;100.00
68193;BME280;55012;47.562;18.414;2022-12-10T09:52:13;98310.84;;;2.06;100.00
68193;BME280;55012;47.562;18.414;2022-12-10T09:57:40;98313.03;;;1.95;100.00
68193;BME280;55012;47.562;18.414;2022-12-10T10:00:29;98306.78;;;2.00;100.00
68193;BME280;55012;47.562;18.414;2022-12-10T10:02:59;98306.59;;;1.96;100.00
68193;BME280;55012;47.562;18.414;2022-12-10T10:05:30;98290.91;;;1.95;100.00
68193;BME280;55012;47.562;18.414;2022-12-10T10:08:02;98302.69;;;1.94;100.00
68193;BME280;55012;47.562;18.414;2022-12-10T10:10:40;98299.38;;;1.97;100.00
68193;BME280;55012;47.562;18.414;2022-12-10T10:15:37;98298.44;;;2.02;100.00
68193;BME280;55012;47.562;18.414;2022-12-10T10:18:13;98306.78;;;2.00;100.00
68193;BME280;55012;47.562;18.414;2022-12-10T10:20:39;98287.78;;;2.02;100.00
68193;BME280;55012;47.562;18.414;2022-12-10T10:23:05;98294.84;;;2.06;100.00
68193;BME280;55012;47.562;18.414;2022-12-10T10:25:31;98300.16;;;2.06;100.00
68193;BME280;55012;47.562;18.414;2022-12-10T10:27:56;98319.00;;;2.01;100.00
68193;BME280;55012;47.562;18.414;2022-12-10T10:30:23;98295.00;;;1.92;100.00
68193;BME280;55012;47.562;18.414;2022-12-10T10:32:52;98292.47;;;1.87;100.00
68193;BME280;55012;47.562;18.414;2022-12-10T10:35:33;98299.03;;;1.90;100.00
68193;BME280;55012;47.562;18.414;2022-12-10T10:38:14;98285.56;;;1.95;100.00
68193;BME280;55012;47.562;18.414;2022-12-10T10:40:48;98290.59;;;2.05;100.00
68193;BME280;55012;47.562;18.414;2022-12-10T10:43:26;98293.13;;;2.02;100.00
68193;BME280;55012;47.562;18.414;2022-12-10T10:46:00;98294.03;;;1.97;100.00
68193;BME280;55012;47.562;18.414;2022-12-10T10:48:27;98289.81;;;1.96;100.00
68193;BME280;55012;47.562;18.414;2022-12-10T10:50:55;98281.34;;;1.94;100.00
68193;BME280;55012;47.562;18.414;2022-12-10T10:53:53;98288.56;;;1.93;100.00
68193;BME280;55012;47.562;18.414;2022-12-10T10:56:39;98287.59;;;1.98;100.00
68193;BME280;55012;47.562;18.414;2022-12-10T11:01:50;98297.34;;;2.03;100.00
68193;BME280;55012;47.562;18.414;2022-12-10T11:04:18;98288.72;;;1.97;100.00
68193;BME280;55012;47.562;18.414;2022-12-10T11:06:45;98310.69;;;1.94;100.00
68193;BME280;55012;47.562;18.414;2022-12-10T11:09:24;98302.34;;;1.87;100.00
68193;BME280;55012;47.562;18.414;2022-12-10T11:11:52;98305.97;;;1.91;100.00
68193;BME280;55012;47.562;18.414;2022-12-10T11:14:29;98300.78;;;1.94;100.00
68193;BME280;55012;47.562;18.414;2022-12-10T11:20:02;98302.03;;;1.88;100.00
68193;BME280;55012;47.562;18.414;2022-12-10T11:22:57;98292.78;;;1.86;100.00
68193;BME280;55012;47.562;18.414;2022-12-10T11:25:46;98296.09;;;1.91;100.00
68193;BME280;55012;47.562;18.414;2022-12-10T11:31:07;98283.03;;;1.90;100.00
68193;BME280;55012;47.562;18.414;2022-12-10T11:39:10;98260.31;;;1.92;100.00
68193;BME280;55012;47.562;18.414;2022-12-10T11:52:42;98263.91;;;1.96;100.00
68193;BME280;55012;47.562;18.414;2022-12-10T12:00:24;98261.44;;;2.00;100.00
68193;BME280;55012;47.562;18.414;2022-12-10T12:11:03;98246.81;;;1.97;100.00
68193;BME280;55012;47.562;18.414;2022-12-10T12:13:35;98251.84;;;1.90;100.00
68193;BME280;55012;47.562;18.414;2022-12-10T12:16:13;98238.50;;;1.90;100.00
68193;BME280;55012;47.562;18.414;2022-12-10T12:18:48;98230.03;;;1.88;100.00
68193;BME280;55012;47.562;18.414;2022-12-10T12:21:17;98230.81;;;1.89;100.00
68193;BME280;55012;47.562;18.414;2022-12-10T12:26:21;98216.84;;;1.83;100.00
68193;BME280;55012;47.562;18.414;2022-12-10T12:29:02;98233.19;;;1.90;100.00
68193;BME280;55012;47.562;18.414;2022-12-10T12:34:52;98226.25;;;1.81;100.00
68193;BME280;55012;47.562;18.414;2022-12-10T12:37:25;98231.44;;;1.77;100.00
68193;BME280;55012;47.562;18.414;2022-12-10T12:40:03;98236.13;;;1.80;100.00
68193;BME280;55012;47.562;18.414;2022-12-10T12:42:43;98229.53;;;1.78;100.00
68193;BME280;55012;47.562;18.414;2022-12-10T12:45:45;98224.84;;;1.75;100.00
68193;BME280;55012;47.562;18.414;2022-12-10T12:48:20;98220.91;;;1.72;100.00
68193;BME280;55012;47.562;18.414;2022-12-10T12:50:59;98225.63;;;1.75;100.00
68193;BME280;55012;47.562;18.414;2022-12-10T12:53:26;98230.97;;;1.75;100.00
68193;BME280;55012;47.562;18.414;2022-12-10T12:56:21;98222.31;;;1.69;100.00
68193;BME280;55012;47.562;18.414;2022-12-10T13:04:13;98227.78;;;1.73;100.00
68193;BME280;55012;47.562;18.414;2022-12-10T13:06:41;98231.75;;;1.76;100.00
68193;BME280;55012;47.562;18.414;2022-12-10T13:14:28;98226.88;;;1.86;100.00
68193;BME280;55012;47.562;18.414;2022-12-10T13:17:33;98220.63;;;1.91;100.00
68193;BME280;55012;47.562;18.414;2022-12-10T13:20:29;98217.66;;;1.92;100.00
68193;BME280;55012;47.562;18.414;2022-12-10T13:25:39;98214.78;;;1.80;100.00
68193;BME280;55012;47.562;18.414;2022-12-10T13:28:28;98208.69;;;1.80;100.00
68193;BME280;55012;47.562;18.414;2022-12-10T13:37:17;98206.81;;;1.89;100.00
68193;BME280;55012;47.562;18.414;2022-12-10T13:39:32;98218.25;;;1.89;100.00
68193;BME280;55012;47.562;18.414;2022-12-10T14:06:43;98202.41;;;1.84;100.00
68193;BME280;55012;47.562;18.414;2022-12-10T14:09:16;98198.47;;;1.82;100.00
68193;BME280;55012;47.562;18.414;2022-12-10T14:12:10;98203.03;;;1.81;100.00
68193;BME280;55012;47.562;18.414;2022-12-10T14:14:55;98202.75;;;1.83;100.00
68193;BME280;55012;47.562;18.414;2022-12-10T14:17:25;98201.16;;;1.82;100.00
68193;BME280;55012;47.562;18.414;2022-12-10T14:19:55;98191.75;;;1.76;100.00
68193;BME280;55012;47.562;18.414;2022-12-10T14:22:45;98194.09;;;1.77;100.00
68193;BME280;55012;47.562;18.414;2022-12-10T14:25:14;98198.00;;;1.80;100.00
68193;BME280;55012;47.562;18.414;2022-12-10T14:27:40;98186.25;;;1.72;100.00
68193;BME280;55012;47.562;18.414;2022-12-10T14:30:21;98184.34;;;1.73;100.00
68193;BME280;55012;47.562;18.414;2022-12-10T14:32:49;98203.97;;;1.77;100.00
68193;BME280;55012;47.562;18.414;2022-12-10T14:35:25;98212.28;;;1.75;100.00
68193;BME280;55012;47.562;18.414;2022-12-10T14:37:54;98198.97;;;1.75;100.00
68193;BME280;55012;47.562;18.414;2022-12-10T14:40:35;98191.41;;;1.68;100.00
68193;BME280;55012;47.562;18.414;2022-12-10T14:43:14;98190.63;;;1.68;100.00
68193;BME280;55012;47.562;18.414;2022-12-10T14:45:59;98195.66;;;1.69;100.00
68193;BME280;55012;47.562;18.414;2022-12-10T14:48:26;98193.91;;;1.65;100.00
68193;BME280;55012;47.562;18.414;2022-12-10T14:50:52;98192.03;;;1.65;100.00
68193;BME280;55012;47.562;18.414;2022-12-10T14:53:22;98186.88;;;1.69;100.00
68193;BME280;55012;47.562;18.414;2022-12-10T14:55:54;98180.91;;;1.72;100.00